EW0036 Weather Reports


Display with metric or nautical units.
time (UTC)temp
F
wind
direction
speed
MPH
gust
MPH
rain 1hr
in
rain 24hr
in
rain mn
in
humidity
%
barometer
mb
20180924090903 56 237 2.0 9.0 0.01 0.29 0.29 96 1002.7
20180924085902 56 160 2.0 7.0 0.01 0.29 0.29 97 1003.0
20180924084901 55 177 1.0 11.0 0.01 0.29 0.29 97 1002.7
20180924083900 55 122 2.0 11.0 0.01 0.29 0.29 97 1002.7
20180924082858 54 212 2.0 4.0 0.01 0.29 0.29 97 1003.0
20180924081857 54 144 2.0 4.0 0.01 0.29 0.29 97 1003.0
20180924080856 54 172 1.0 4.0 0.01 0.28 0.28 96 1003.0
20180924075818 53 212 2.0 6.0 0.01 0.28 0.28 96 1003.0
20180924074817 53 187 1.0 6.0 0.01 0.28 0.28 96 1003.4
20180924073816 53 185 1.0 6.0 0.02 0.28 0.28 96 1003.4
20180924072816 53 234 2.0 6.0 0.03 0.28 0.28 96 1003.7
20180924071814 52 176 1.0 8.0 0.03 0.28 0.28 96 1003.7
20180924070353 52 119 1.0 6.0 0.03 0.27 0.27 96 1004.1
20180924065352 52 224 3.0 6.0 0.03 0.27 0.27 96 1004.1
20180924064351 52 136 3.0 5.0 0.04 0.26 0.26 96 1004.1
20180924063349 52 161 1.0 5.0 0.04 0.26 0.26 96 1004.1
20180924062348 52 140 1.0 4.0 0.04 0.25 0.25 95 1004.1
20180924061347 51 167 1.0 4.0 0.04 0.24 0.24 95 1004.4
20180924060345 51 133 2.0 5.0 0.05 0.24 0.24 95 1004.4
20180924055344 51 161 1.0 4.0 0.07 0.24 0.24 95 1004.7
20180924054221 51 160 1.0 3.0 0.10 0.22 0.22 95 1004.4
20180924053220 51 222 1.0 3.0 0.12 0.22 0.22 94 1004.4
20180924052151 51 285 1.0 5.0 0.12 0.21 0.21 94 1004.4
20180924051150 51 168 1.0 5.0 0.11 0.20 0.20 93 1004.4
20180924050149 51 148 1.0 5.0 0.09 0.18 0.18 93 1004.7
20180924045148 51 145 2.0 5.0 0.08 0.17 0.17 92 1004.7
20180924044147 51 115 1.0 8.0 0.04 0.11 0.11 92 1004.7
20180924043146 51 186 3.0 8.0 0.04 0.10 0.10 92 1004.4
20180924042144 51 133 1.0 5.0 0.07 0.09 0.09 92 1004.7
20180924041143 51 172 2.0 5.0 0.09 0.09 0.09 91 1005.1
20180924040142 51 111 1.0 4.0 0.09 0.09 0.09 90 1005.4
20180924035140 52 110 0.0 3.0 0.09 0.09 0.09 89 1006.4
20180924034138 52 50 0.0 4.0 0.07 0.07 0.07 87 1007.1
20180924033058 53 166 1.0 6.0 0.05 0.05 0.05 83 1007.1
20180924032057 54 131 2.0 8.0 0.02 0.02 0.02 79 1007.1
20180924031056 55 164 3.0 8.0 0.00 0.00 0.00 76 1007.5
20180924030054 55 226 4.0 7.0 0.00 0.00 0.00 74 1006.8
20180924025053 55 147 2.0 7.0 0.00 0.00 0.00 74 1006.8
20180924024051 55 102 0.0 1.0 0.00 0.00 0.00 74 1007.1
20180924023051 55 163 0.0 8.0 0.00 0.00 0.00 74 1007.1
20180924022049 54 213 2.0 8.0 0.00 0.00 0.00 74 1007.8
20180924021048 54 221 1.0 8.0 0.00 0.00 0.00 74 1008.1
20180924020047 54 216 2.0 8.0 0.00 0.00 0.00 75 1008.1
20180924015046 54 179 2.0 6.0 0.00 0.00 0.00 75 1008.1
20180924014045 53 163 2.0 6.0 0.00 0.00 0.00 76 1008.8
20180924013043 53 95 3.0 5.0 0.00 0.00 0.00 79 1008.8
20180924012042 52 263 1.0 5.0 0.00 0.00 0.00 80 1008.8
20180924011011 52 24 3.0 6.0 0.00 0.00 0.00 82 1009.1
20180924010010 52 120 1.0 2.0 0.00 0.00 0.00 83 1009.5
20180924005009 51 281 1.0 1.0 0.00 0.00 0.00 84 1009.5
20180924003705 51 352 1.0 1.0 0.00 0.00 0.00 85 1009.8
20180924002703 51 266 1.0 1.0 0.00 0.00 0.00 85 1010.2
20180924001702 50 217 1.0 1.0 0.00 0.00 0.00 85 1010.5
20180924000700 50 235 0.0 1.0 0.00 0.00 0.00 86 1010.8
20180923235659 50 235 0.0 1.0 0.00 0.00 0.00 87 1010.8
20180923234658 50 248 0.0 0.0 0.00 0.00 0.00 88 1011.2
20180923233656 50 247 0.0 1.0 0.00 0.00 0.00 88 1011.5
20180923232655 50 248 0.0 1.0 0.00 0.00 0.00 88 1011.9
20180923231525 49 158 0.0 1.0 0.00 0.00 0.00 89 1011.9
20180923230523 48 131 0.0 0.0 0.00 0.00 0.00 90 1012.2
20180923225522 48 131 0.0 0.0 0.00 0.00 0.00 91 1012.5
20180923224521 48 131 0.0 0.0 0.00 0.00 0.00 90 1012.9
20180923223520 48 131 0.0 0.0 0.00 0.00 0.00 89 1012.9
20180923222518 48 131 0.0 0.0 0.00 0.00 0.00 89 1013.2
20180923221517 49 131 0.0 0.0 0.00 0.00 0.00 89 1013.2
20180923220516 49 131 0.0 0.0 0.00 0.00 0.00 89 1013.2
20180923215516 49 131 0.0 1.0 0.00 0.00 0.00 89 1013.5
20180923214515 49 129 0.0 1.0 0.00 0.02 0.00 89 1013.5
20180923213342 49 129 0.0 0.0 0.00 0.04 0.00 88 1013.9
20180923212341 49 129 0.0 1.0 0.00 0.08 0.00 88 1013.9
20180923211314 49 130 0.0 1.0 0.00 0.12 0.00 88 1013.9
20180923210313 49 266 0.0 0.0 0.00 0.14 0.00 87 1013.9
20180923205233 49 266 0.0 1.0 0.00 0.16 0.14 86 1013.9
20180923204232 49 266 0.0 1.0 0.00 0.17 0.14 86 1013.9
20180923203231 50 264 0.0 0.0 0.00 0.18 0.14 85 1014.2
20180923202230 51 264 0.0 0.0 0.00 0.20 0.14 83 1014.2
20180923201227 52 264 0.0 1.0 0.00 0.20 0.14 80 1014.2
20180923200114 52 264 0.0 1.0 0.00 0.20 0.14 79 1014.2
20180923195112 52 256 0.0 1.0 0.00 0.20 0.14 78 1014.6
20180923194110 52 254 0.0 1.0 0.00 0.20 0.14 78 1014.6
20180923193108 52 254 0.0 1.0 0.00 0.20 0.14 78 1014.9
20180923192023 52 262 1.0 1.0 0.00 0.20 0.14 78 1014.9
20180923191022 51 250 1.0 1.0 0.00 0.20 0.14 79 1014.9
20180923190020 51 250 0.0 1.0 0.00 0.20 0.14 80 1014.9
20180923185018 50 250 0.0 0.0 0.00 0.20 0.14 82 1014.9
20180923184017 50 250 0.0 0.0 0.00 0.20 0.14 84 1014.9
20180923183015 49 250 0.0 1.0 0.00 0.20 0.14 85 1015.2
20180923182013 49 249 0.0 1.0 0.00 0.20 0.14 86 1014.9
20180923180924 49 256 0.0 0.0 0.00 0.20 0.14 87 1014.9
20180923175922 49 256 0.0 0.0 0.00 0.20 0.14 87 1014.9
20180923174920 49 257 0.0 0.0 0.00 0.20 0.14 87 1015.2
20180923172817 49 256 0.0 0.0 0.00 0.20 0.14 85 1015.2
20180923171816 50 256 0.0 0.0 0.00 0.20 0.14 85 1015.2
20180923170748 50 256 0.0 0.0 0.00 0.20 0.14 84 1015.6
20180923165747 50 256 0.0 0.0 0.00 0.20 0.14 83 1015.6
20180923164745 51 256 0.0 0.0 0.00 0.20 0.14 81 1015.6
20180923163743 51 256 0.0 0.0 0.00 0.20 0.14 79 1015.6
20180923162741 52 255 0.0 0.0 0.00 0.20 0.14 78 1015.6
20180923161739 53 256 0.0 0.0 0.00 0.20 0.14 76 1015.6
20180923160738 54 256 0.0 0.0 0.00 0.20 0.14 73 1015.6
20180923155736 55 255 0.0 0.0 0.00 0.20 0.14 70 1015.6
20180923154649 56 256 0.0 0.0 0.00 0.20 0.14 67 1015.6
20180923153648 57 256 0.0 1.0 0.00 0.20 0.14 65 1015.6
20180923152646 59 255 1.0 1.0 0.00 0.20 0.14 61 1015.6
20180923151644 60 111 0.0 3.0 0.00 0.20 0.14 58 1015.6
20180923150643 61 160 2.0 3.0 0.00 0.20 0.14 54 1015.6
20180923145308 62 201 0.0 2.0 0.00 0.20 0.14 55 1015.6
20180923144307 62 201 0.0 3.0 0.00 0.20 0.14 53 1015.6
20180923143305 62 277 1.0 4.0 0.00 0.20 0.14 54 1015.6
20180923142029 62 250 1.0 4.0 0.00 0.20 0.14 54 1015.6
20180923141027 63 293 1.0 6.0 0.00 0.20 0.14 52 1015.6
20180923140025 63 229 2.0 6.0 0.00 0.20 0.14 53 1015.9
20180923135024 64 231 1.0 5.0 0.00 0.20 0.14 52 1015.9
20180923134023 65 243 1.0 5.0 0.00 0.20 0.14 52 1015.9
20180923133022 67 201 2.0 5.0 0.00 0.20 0.14 52 1015.6
20180923132021 66 324 1.0 6.0 0.00 0.20 0.14 54 1015.9
20180923131019 64 7 2.0 6.0 0.00 0.20 0.14 56 1015.9
20180923130018 63 197 1.0 4.0 0.00 0.20 0.14 58 1015.9
20180923125017 63 206 1.0 4.0 0.00 0.20 0.14 56 1015.9
20180923124016 62 286 2.0 4.0 0.00 0.20 0.14 59 1015.9
20180923123014 62 195 0.0 2.0 0.00 0.20 0.14 60 1015.9
20180923122013 63 256 1.0 3.0 0.00 0.20 0.14 57 1015.9
20180923120659 62 198 1.0 4.0 0.00 0.20 0.14 59 1015.9
20180923115657 62 290 2.0 4.0 0.00 0.20 0.14 60 1016.3
20180923114656 62 186 1.0 5.0 0.00 0.20 0.14 62 1016.3
20180923113655 63 182 2.0 5.0 0.00 0.20 0.14 59 1016.3
20180923112653 63 163 1.0 3.0 0.00 0.20 0.14 62 1016.3
20180923111619 61 173 1.0 5.0 0.00 0.20 0.14 64 1016.3
20180923110618 61 172 1.0 5.0 0.00 0.20 0.14 63 1016.3
20180923105617 62 173 1.0 5.0 0.00 0.20 0.14 62 1016.3
20180923104345 62 232 2.0 5.0 0.00 0.20 0.14 62 1016.3
20180923103343 63 221 2.0 5.0 0.00 0.20 0.14 61 1016.6
20180923102236 62 209 1.0 5.0 0.00 0.20 0.14 66 1016.3
20180923101235 62 184 3.0 7.0 0.00 0.20 0.14 67 1016.6
20180923100233 60 156 2.0 6.0 0.00 0.20 0.14 70 1016.6
20180923095231 59 173 2.0 5.0 0.00 0.20 0.14 70 1016.3
20180923094229 60 175 2.0 5.0 0.00 0.20 0.14 70 1016.3
20180923093226 61 353 2.0 5.0 0.00 0.20 0.14 68 1016.3
20180923091213 60 220 2.0 5.0 0.00 0.20 0.14 71 1016.3